Time;durP1;ratioP1;P1;durP2;ratioP2;P2;SDS_P1;SDS_P2;PMS_P1;PMS_P2;Temp;Humidity;BMP_temperature;BMP_pressure;BME280_temperature;BME280_humidity;BME280_pressure;Samples;Min_cycle;Max_cycle;Signal;HPM_P1;HPM_P2
2022/01/14 00:01:59;;;;;;;16.97;7.47;;;;;;;-4.13;89.14;100517.53;5090616;28;20475;-59
2022/01/14 00:04:26;;;;;;;16.30;6.43;;;;;;;-4.15;89.42;100508.34;5090657;28;20459;-59
2022/01/14 00:06:54;;;;;;;16.33;6.23;;;;;;;-4.10;89.44;100514.22;5090546;28;20471;-59
2022/01/14 00:09:21;;;;;;;18.50;7.83;;;;;;;-4.22;89.42;100511.56;5090851;28;20448;-59
2022/01/14 00:11:51;;;;;;;14.77;6.40;;;;;;;-4.19;89.81;100502.47;5090867;28;20476;-67
2022/01/14 00:14:24;;;;;;;16.83;7.27;;;;;;;-4.24;89.56;100494.09;5090574;28;20487;-68
2022/01/14 00:16:51;;;;;;;22.63;9.33;;;;;;;-4.24;89.44;100478.28;5090700;28;20455;-59
2022/01/14 00:19:19;;;;;;;14.47;6.17;;;;;;;-4.18;89.39;100481.66;5090519;28;20448;-67
2022/01/14 00:21:46;;;;;;;10.77;4.60;;;;;;;-4.18;89.30;100483.34;5091094;28;20472;-67
2022/01/14 00:24:24;;;;;;;18.73;7.70;;;;;;;-4.28;89.80;100481.53;5090492;28;21063;-59
2022/01/14 00:32:31;;;;;;;17.03;7.00;;;;;;;-4.29;89.79;100467.41;5090473;28;20447;-67
2022/01/14 00:34:58;;;;;;;20.57;6.87;;;;;;;-4.33;90.01;100479.84;5090527;28;20494;-68
2022/01/14 00:37:25;;;;;;;18.30;7.57;;;;;;;-4.34;89.89;100483.16;5090625;28;20828;-67
2022/01/14 00:39:51;;;;;;;18.00;7.30;;;;;;;-4.36;89.86;100482.31;5090223;28;20458;-66
2022/01/14 00:42:19;;;;;;;16.83;7.23;;;;;;;-4.26;89.36;100479.91;5090585;28;20467;-68
2022/01/14 00:44:48;;;;;;;14.13;6.27;;;;;;;-4.15;88.99;100479.19;5090492;28;20447;-59
2022/01/14 00:47:15;;;;;;;9.57;4.00;;;;;;;-4.08;88.74;100471.75;5090415;28;20468;-67
2022/01/14 00:49:41;;;;;;;20.53;7.73;;;;;;;-4.06;88.20;100468.47;5090546;28;20455;-67
2022/01/14 00:52:08;;;;;;;19.83;7.93;;;;;;;-4.10;88.41;100476.75;5090179;28;20463;-66
2022/01/14 00:54:35;;;;;;;6.23;3.67;;;;;;;-3.94;88.08;100472.72;5090105;28;20514;-59
2022/01/14 00:57:26;;;;;;;18.80;6.70;;;;;;;-3.99;87.68;100467.69;5090077;28;20460;-68
2022/01/14 00:59:53;;;;;;;14.43;6.40;;;;;;;-4.02;87.59;100460.16;5090557;28;20992;-68
2022/01/14 01:02:21;;;;;;;10.87;5.57;;;;;;;-3.98;87.79;100454.38;5090231;28;20490;-59
2022/01/14 01:04:49;;;;;;;16.00;6.27;;;;;;;-4.00;87.97;100462.69;5093923;28;20945;-67
2022/01/14 01:07:17;;;;;;;14.03;6.47;;;;;;;-4.05;87.97;100444.31;5093868;28;20845;-59
2022/01/14 01:09:48;;;;;;;14.03;6.30;;;;;;;-4.03;88.08;100437.69;5093858;28;20464;-59
2022/01/14 01:12:27;;;;;;;10.43;5.37;;;;;;;-3.98;87.83;100436.06;5094015;28;20467;-68
2022/01/14 01:15:04;;;;;;;14.17;6.30;;;;;;;-3.99;87.89;100437.72;5093711;28;20502;-59
2022/01/14 01:17:32;;;;;;;16.80;6.97;;;;;;;-4.05;87.86;100422.66;5093791;28;20455;-67
2022/01/14 01:19:59;;;;;;;10.20;5.10;;;;;;;-4.01;87.99;100421.91;5093658;28;20450;-59
2022/01/14 01:22:26;;;;;;;18.17;7.17;;;;;;;-3.96;87.37;100415.25;5093548;28;20468;-67
2022/01/14 01:24:53;;;;;;;17.73;7.50;;;;;;;-4.02;87.73;100420.19;5093420;28;20941;-59
2022/01/14 01:27:21;;;;;;;11.30;5.93;;;;;;;-4.11;88.22;100420.94;5094057;28;20464;-59
2022/01/14 01:29:53;;;;;;;14.07;6.40;;;;;;;-4.10;88.50;100416.81;5093499;28;20463;-67
2022/01/14 01:32:22;;;;;;;12.87;5.77;;;;;;;-4.10;88.33;100406.84;5093649;28;20463;-59
2022/01/14 01:34:49;;;;;;;16.87;7.13;;;;;;;-4.12;88.28;100408.47;5093438;28;20496;-59
2022/01/14 01:37:15;;;;;;;16.97;8.00;;;;;;;-4.15;88.50;100401.78;5093302;28;20468;-59
2022/01/14 01:39:42;;;;;;;14.43;6.03;;;;;;;-4.20;88.55;100385.91;5093286;28;21026;-59
2022/01/14 01:42:11;;;;;;;16.37;6.90;;;;;;;-4.12;88.17;100383.50;5093011;28;20476;-68
2022/01/14 01:44:40;;;;;;;17.10;6.13;;;;;;;-4.07;88.11;100381.88;5093465;28;20824;-59
2022/01/14 01:47:08;;;;;;;15.97;7.53;;;;;;;-4.15;88.18;100368.50;5093149;28;20475;-59
2022/01/14 01:49:38;;;;;;;14.97;5.70;;;;;;;-4.05;87.95;100361.91;5092976;28;20464;-67
2022/01/14 01:52:06;;;;;;;17.23;6.70;;;;;;;-4.10;88.42;100371.88;5093335;28;20460;-68
2022/01/14 01:54:33;;;;;;;16.50;7.30;;;;;;;-4.10;88.30;100356.88;5093164;28;20487;-59
2022/01/14 01:57:00;;;;;;;13.67;6.10;;;;;;;-4.01;88.01;100356.94;5093149;28;20476;-67
2022/01/14 01:59:28;;;;;;;16.27;6.43;;;;;;;-3.95;87.84;100351.16;5092762;28;20844;-59
2022/01/14 02:01:57;;;;;;;18.93;6.83;;;;;;;-4.01;87.62;100341.97;5092588;28;20471;-59
2022/01/14 02:04:25;;;;;;;13.40;6.13;;;;;;;-3.93;87.68;100344.50;5092910;28;20452;-59
2022/01/14 02:06:54;;;;;;;16.00;6.20;;;;;;;-3.95;87.36;100339.50;5092048;28;20992;-67
2022/01/14 02:09:23;;;;;;;18.83;7.03;;;;;;;-3.99;87.72;100325.31;5092805;28;20440;-66
2022/01/14 02:11:50;;;;;;;12.43;5.57;;;;;;;-3.96;87.86;100315.34;5092498;28;20868;-68
2022/01/14 02:14:39;;;;;;;16.30;7.17;;;;;;;-3.89;87.07;100303.75;5091966;28;20491;-59
2022/01/14 02:22:48;;;;;;;14.97;5.80;;;;;;;-3.83;87.12;100285.44;5092624;28;20443;-59
2022/01/14 02:25:16;;;;;;;17.27;5.50;;;;;;;-3.88;87.24;100268.75;5092668;28;20447;-59
2022/01/14 02:27:44;;;;;;;10.07;5.43;;;;;;;-3.85;87.18;100264.59;5092363;28;20444;-68
2022/01/14 02:30:12;;;;;;;6.63;4.03;;;;;;;-3.83;86.90;100255.47;5092146;28;20447;-58
2022/01/14 02:32:39;;;;;;;15.33;6.17;;;;;;;-3.89;87.19;100257.09;5092366;28;20455;-68
2022/01/14 02:35:09;;;;;;;13.03;5.77;;;;;;;-3.87;87.13;100237.97;5092203;28;20868;-59
2022/01/14 02:37:37;;;;;;;18.30;6.50;;;;;;;-3.76;86.47;100247.16;5092106;28;20448;-59
2022/01/14 02:40:05;;;;;;;14.87;6.17;;;;;;;-3.65;86.23;100255.53;5092070;28;20456;-68
2022/01/14 02:42:32;;;;;;;14.47;5.80;;;;;;;-3.65;86.29;100250.53;5091924;28;20468;-59
2022/01/14 02:45:03;;;;;;;12.90;6.50;;;;;;;-3.57;85.73;100248.91;5092203;28;20538;-67
2022/01/14 02:47:30;;;;;;;10.43;5.57;;;;;;;-3.50;85.31;100258.09;5091840;28;21047;-59
2022/01/14 02:49:57;;;;;;;18.70;6.10;;;;;;;-3.52;85.34;100234.78;5091788;28;20980;-61
2022/01/14 02:52:40;;;;;;;12.20;6.07;;;;;;;-3.47;85.39;100240.59;5092279;28;20475;-60
2022/01/14 02:55:16;;;;;;;13.37;5.20;;;;;;;-3.38;84.82;100243.97;5091764;28;20495;-60
2022/01/14 02:57:44;;;;;;;25.93;6.87;;;;;;;-3.39;84.80;100227.31;5091858;28;20444;-59
2022/01/14 03:00:12;;;;;;;15.90;5.90;;;;;;;-3.23;83.91;100204.84;5091625;28;20836;-59
2022/01/14 03:02:43;;;;;;;16.80;6.87;;;;;;;-3.18;83.81;100222.34;5091602;28;20448;-59
2022/01/14 03:05:10;;;;;;;14.20;6.47;;;;;;;-3.18;83.81;100212.34;5091750;28;20544;-67
2022/01/14 03:07:40;;;;;;;12.90;6.03;;;;;;;-3.12;83.93;100209.03;5091465;28;20440;-67
2022/01/14 03:10:09;;;;;;;17.30;6.83;;;;;;;-3.12;83.36;100197.34;5091538;28;20976;-65
2022/01/14 03:12:36;;;;;;;17.10;7.03;;;;;;;-3.11;83.52;100205.69;5091486;28;20450;-59
2022/01/14 03:15:04;;;;;;;15.37;6.60;;;;;;;-3.13;83.87;100209.88;5091349;28;20495;-68
2022/01/14 03:17:31;;;;;;;17.27;6.13;;;;;;;-3.13;83.89;100215.69;5091154;28;21003;-59
2022/01/14 03:20:00;;;;;;;14.90;6.30;;;;;;;-3.06;83.72;100216.53;5091291;28;20958;-59
2022/01/14 03:22:31;;;;;;;11.97;5.60;;;;;;;-3.05;83.77;100214.03;5091205;28;20467;-59
2022/01/14 03:27:44;;;;;;;12.57;5.50;;;;;;;-3.08;83.78;100214.03;5090588;28;20797;-59
2022/01/14 03:30:12;;;;;;;14.00;6.20;;;;;;;-3.04;83.51;100213.19;5091281;28;20483;-68
2022/01/14 03:32:39;;;;;;;10.80;5.20;;;;;;;-3.01;83.21;100225.72;5091498;28;20798;-68
2022/01/14 03:35:08;;;;;;;11.80;5.87;;;;;;;-3.04;83.39;100207.38;5090971;28;20534;-59
2022/01/14 03:37:35;;;;;;;11.97;5.20;;;;;;;-3.02;83.63;100214.06;5090912;28;20972;-59
2022/01/14 03:40:04;;;;;;;10.13;4.53;;;;;;;-3.05;83.56;100203.22;5091122;28;20865;-59
2022/01/14 03:42:30;;;;;;;9.30;4.93;;;;;;;-3.08;83.34;100203.22;5090990;28;20467;-67
2022/01/14 03:44:57;;;;;;;14.90;6.20;;;;;;;-3.04;83.49;100205.69;5090993;28;20464;-68
2022/01/14 03:47:24;;;;;;;18.23;6.83;;;;;;;-3.10;83.79;100195.69;5091039;28;20909;-67
2022/01/14 03:49:51;;;;;;;16.03;7.27;;;;;;;-3.14;84.16;100176.53;5090946;28;20447;-59
2022/01/14 03:52:18;;;;;;;15.90;6.50;;;;;;;-3.15;84.53;100167.31;5091083;28;20472;-59
2022/01/14 03:54:45;;;;;;;16.97;6.77;;;;;;;-3.16;84.61;100159.84;5090776;28;21020;-68
2022/01/14 03:57:13;;;;;;;15.00;7.40;;;;;;;-3.17;84.54;100159.00;5090924;28;20526;-67
2022/01/14 03:59:40;;;;;;;15.50;6.87;;;;;;;-3.16;84.51;100150.66;5090971;28;20923;-59
2022/01/14 04:02:07;;;;;;;18.13;6.17;;;;;;;-3.15;84.62;100157.31;5090965;28;20476;-59
2022/01/14 04:04:35;;;;;;;12.57;6.20;;;;;;;-3.11;84.73;100158.16;5090697;28;20455;-68
2022/01/14 04:07:02;;;;;;;16.13;6.30;;;;;;;-3.17;84.71;100159.00;5091126;28;20861;-68
2022/01/14 04:09:29;;;;;;;14.70;6.60;;;;;;;-3.12;84.58;100157.31;5090501;28;20450;-67
2022/01/14 04:12:00;;;;;;;14.00;6.23;;;;;;;-3.15;84.65;100162.31;5090323;28;20533;-68
2022/01/14 04:17:13;;;;;;;11.93;5.70;;;;;;;-3.17;85.24;100159.00;5090774;28;20455;-59
2022/01/14 04:19:39;;;;;;;18.23;6.83;;;;;;;-3.20;85.33;100148.97;5090610;28;20440;-68
2022/01/14 04:22:06;;;;;;;16.97;6.33;;;;;;;-3.13;85.44;100150.66;5090320;28;20511;-60
2022/01/14 04:24:33;;;;;;;14.57;5.83;;;;;;;-3.12;85.47;100147.31;5090518;28;20447;-60
2022/01/14 04:27:00;;;;;;;20.00;7.30;;;;;;;-3.16;85.73;100149.84;5090259;28;20472;-59
2022/01/14 04:29:28;;;;;;;19.67;6.50;;;;;;;-3.19;85.57;100145.66;5090846;28;20969;-59
2022/01/14 04:31:55;;;;;;;13.47;7.20;;;;;;;-3.21;85.42;100144.81;5090262;28;20468;-59
2022/01/14 04:34:22;;;;;;;12.97;6.37;;;;;;;-3.26;85.54;100129.81;5090300;28;20451;-59
2022/01/14 04:36:48;;;;;;;12.63;6.20;;;;;;;-3.29;85.96;100133.97;5090498;28;20464;-63
2022/01/14 04:39:15;;;;;;;12.23;5.53;;;;;;;-3.21;85.34;100133.13;5093556;28;20452;-68
2022/01/14 04:41:42;;;;;;;11.37;5.37;;;;;;;-3.18;85.45;100129.81;5094626;28;20480;-59
2022/01/14 04:44:09;;;;;;;11.87;6.03;;;;;;;-3.25;85.58;100121.47;5094539;28;20483;-68
2022/01/14 04:47:00;;;;;;;17.60;5.90;;;;;;;-3.25;85.89;100121.47;5094417;28;20480;-68
2022/01/14 04:49:27;;;;;;;12.90;5.83;;;;;;;-3.24;85.98;100123.13;5094355;28;20443;-68
2022/01/14 04:51:55;;;;;;;18.40;6.43;;;;;;;-3.23;86.34;100122.31;5093970;28;20475;-60
2022/01/14 04:54:22;;;;;;;18.50;6.93;;;;;;;-3.27;86.66;100098.13;5093955;28;20827;-59
2022/01/14 04:56:49;;;;;;;14.70;5.63;;;;;;;-3.10;86.58;100110.63;5093997;28;20471;-60
2022/01/14 04:59:16;;;;;;;13.80;5.70;;;;;;;-3.17;87.17;100106.50;5094455;28;20443;-59
2022/01/14 05:01:44;;;;;;;15.77;5.43;;;;;;;-3.20;87.53;100098.97;5094041;28;21023;-59
2022/01/14 05:04:11;;;;;;;13.50;7.00;;;;;;;-3.16;87.63;100108.16;5094197;28;20455;-68
2022/01/14 05:06:39;;;;;;;15.40;7.20;;;;;;;-3.15;87.53;100109.81;5094218;28;21082;-59
2022/01/14 05:09:17;;;;;;;19.07;6.57;;;;;;;-3.17;87.38;100108.13;5093758;28;20460;-59
2022/01/14 05:11:52;;;;;;;14.40;5.30;;;;;;;-3.11;87.42;100101.47;5094416;28;20463;-62
2022/01/14 05:14:18;;;;;;;17.47;6.10;;;;;;;-3.13;87.62;100108.16;5094003;28;20834;-68
2022/01/14 05:16:47;;;;;;;16.67;6.10;;;;;;;-3.06;87.40;100102.28;5094089;28;20495;-67
2022/01/14 05:19:14;;;;;;;15.73;5.57;;;;;;;-3.05;87.98;100101.47;5094008;28;20538;-67
2022/01/14 05:21:41;;;;;;;13.07;6.30;;;;;;;-3.00;88.21;100073.94;5093727;28;20479;-59
2022/01/14 05:24:07;;;;;;;17.13;6.87;;;;;;;-3.00;88.56;100087.28;5093872;28;20850;-59
2022/01/14 05:26:34;;;;;;;9.43;4.93;;;;;;;-3.03;89.12;100087.28;5093776;28;21222;-68
2022/01/14 05:29:01;;;;;;;13.37;6.00;;;;;;;-2.92;89.29;100073.94;5093305;28;20953;-60
2022/01/14 05:31:41;;;;;;;18.07;5.33;;;;;;;-2.83;89.13;100083.94;5093753;28;20475;-59
2022/01/14 05:34:10;;;;;;;13.87;5.97;;;;;;;-2.87;89.45;100074.78;5093388;28;20452;-68
2022/01/14 05:36:37;;;;;;;10.90;5.00;;;;;;;-2.76;89.38;100070.59;5093673;28;20499;-68
2022/01/14 05:39:04;;;;;;;18.60;6.63;;;;;;;-2.81;89.84;100064.75;5093306;28;20447;-59
2022/01/14 05:41:31;;;;;;;11.17;5.00;;;;;;;-2.71;90.13;100058.03;5093157;28;20480;-67
2022/01/14 05:43:59;;;;;;;14.73;6.77;;;;;;;-2.68;89.44;100056.34;5093050;28;20440;-67
2022/01/14 05:46:26;;;;;;;14.73;6.60;;;;;;;-2.72;89.66;100066.41;5093660;28;20874;-59
2022/01/14 05:48:53;;;;;;;17.97;7.47;;;;;;;-2.73;89.78;100065.56;5092788;28;20458;-59
2022/01/14 05:51:22;;;;;;;15.20;6.33;;;;;;;-2.70;90.12;100080.56;5092659;28;20503;-67
2022/01/14 05:53:48;;;;;;;13.50;5.77;;;;;;;-2.62;89.97;100076.38;5093226;28;20444;-68
2022/01/14 05:56:15;;;;;;;14.20;6.47;;;;;;;-2.59;89.50;100070.50;5093096;28;20503;-68
2022/01/14 05:58:42;;;;;;;12.80;6.10;;;;;;;-2.52;89.11;100074.69;5092973;28;20477;-67
2022/01/14 06:01:09;;;;;;;14.43;6.87;;;;;;;-2.59;89.00;100066.38;5092617;28;20479;-67
2022/01/14 06:03:36;;;;;;;9.87;4.53;;;;;;;-2.59;89.43;100073.88;5092774;28;20459;-68
2022/01/14 06:06:03;;;;;;;16.00;7.27;;;;;;;-2.62;89.29;100073.88;5092967;28;20483;-59
2022/01/14 06:08:31;;;;;;;12.73;6.47;;;;;;;-2.60;89.24;100077.19;5092991;28;20455;-67
2022/01/14 06:10:58;;;;;;;16.30;6.53;;;;;;;-2.56;89.57;100063.84;5092898;28;20480;-68
2022/01/14 06:13:24;;;;;;;13.20;6.57;;;;;;;-2.47;89.39;100057.13;5092753;28;20444;-66
2022/01/14 06:15:51;;;;;;;12.43;5.33;;;;;;;-2.42;89.81;100045.44;5092720;28;20496;-68
2022/01/14 06:18:18;;;;;;;11.47;6.03;;;;;;;-2.38;89.68;100042.91;5092625;28;20443;-59
2022/01/14 06:20:46;;;;;;;15.73;6.57;;;;;;;-2.37;89.56;100043.75;5092653;28;20476;-68
2022/01/14 06:23:13;;;;;;;16.70;5.93;;;;;;;-2.42;89.19;100035.41;5092733;28;20451;-59
2022/01/14 06:25:41;;;;;;;17.67;5.83;;;;;;;-2.36;89.32;100022.84;5092405;28;20486;-59
2022/01/14 06:28:08;;;;;;;20.40;7.10;;;;;;;-2.28;89.39;100011.13;5092514;28;20455;-67
2022/01/14 06:30:35;;;;;;;12.83;6.27;;;;;;;-2.26;89.61;100011.97;5091907;28;20846;-68
2022/01/14 06:33:02;;;;;;;13.00;5.80;;;;;;;-2.20;89.77;100013.63;5092348;28;20467;-68
2022/01/14 06:35:29;;;;;;;11.70;5.17;;;;;;;-2.18;89.77;100000.25;5092194;28;20503;-68
2022/01/14 06:37:57;;;;;;;13.27;6.33;;;;;;;-2.16;89.95;100000.22;5092100;28;20451;-68
2022/01/14 06:40:24;;;;;;;15.30;6.13;;;;;;;-2.10;90.29;99993.50;5092230;28;20574;-68
2022/01/14 06:42:53;;;;;;;18.30;7.30;;;;;;;-2.08;90.71;99991.81;5092225;28;20547;-68
2022/01/14 06:45:21;;;;;;;13.13;5.73;;;;;;;-2.00;90.92;99988.44;5092085;28;20917;-68
2022/01/14 06:47:48;;;;;;;14.37;6.43;;;;;;;-1.91;90.83;99993.38;5092210;28;20443;-68
2022/01/14 06:50:15;;;;;;;13.17;6.57;;;;;;;-1.79;90.58;99997.47;5091893;28;20456;-68
2022/01/14 06:52:42;;;;;;;11.30;5.67;;;;;;;-1.76;90.69;99982.41;5091973;28;20981;-60
2022/01/14 06:55:10;;;;;;;10.93;5.27;;;;;;;-1.65;90.76;99981.50;5091685;28;20464;-68
2022/01/14 06:57:37;;;;;;;15.70;6.50;;;;;;;-1.55;90.62;99981.41;5092021;28;20448;-59
2022/01/14 07:00:07;;;;;;;16.80;6.70;;;;;;;-1.53;90.68;99970.53;5091389;28;20463;-68
2022/01/14 07:02:34;;;;;;;16.30;7.67;;;;;;;-1.43;90.48;99981.28;5091475;28;20450;-68
2022/01/14 07:05:01;;;;;;;15.47;7.10;;;;;;;-1.34;90.52;99983.72;5091561;28;20463;-59
2022/01/14 07:07:28;;;;;;;12.93;5.57;;;;;;;-1.11;90.40;99980.97;5091564;28;20479;-68
2022/01/14 07:09:58;;;;;;;9.20;4.77;;;;;;;-1.04;89.59;99991.81;5091596;28;20451;-67
2022/01/14 07:12:25;;;;;;;17.70;7.20;;;;;;;-0.88;89.46;99970.69;5091520;28;20471;-59
2022/01/14 07:14:52;;;;;;;8.73;4.13;;;;;;;-0.69;89.22;99972.16;5091252;28;20458;-67
2022/01/14 07:17:21;;;;;;;11.70;5.87;;;;;;;-0.63;88.60;99965.41;5091172;28;20492;-65
2022/01/14 07:19:50;;;;;;;13.23;5.67;;;;;;;-0.49;88.02;99956.00;5091380;28;20459;-67
2022/01/14 07:22:17;;;;;;;16.87;6.43;;;;;;;-0.46;87.85;99948.44;5091247;28;20476;-68
2022/01/14 07:24:44;;;;;;;13.50;5.37;;;;;;;-0.36;87.59;99952.47;5091498;28;20459;-68
2022/01/14 07:27:11;;;;;;;18.03;7.63;;;;;;;-0.27;87.63;99949.81;5091093;28;20304;-59
2022/01/14 07:29:38;;;;;;;13.03;6.87;;;;;;;-0.27;86.99;99949.00;5091151;28;20455;-59
2022/01/14 07:32:06;;;;;;;10.77;5.23;;;;;;;-0.19;87.68;99946.38;5091406;28;20475;-68
2022/01/14 07:34:35;;;;;;;16.07;6.73;;;;;;;-0.06;87.21;99966.28;5091221;28;20452;-67
2022/01/14 07:37:02;;;;;;;13.23;6.33;;;;;;;0.03;87.33;99947.72;5090915;28;20492;-59
2022/01/14 07:39:29;;;;;;;13.77;5.53;;;;;;;0.19;86.17;99956.69;5090970;28;20456;-67
2022/01/14 07:41:56;;;;;;;14.57;6.47;;;;;;;0.10;86.77;99939.22;5091398;28;20476;-59
2022/01/14 07:44:23;;;;;;;15.03;6.63;;;;;;;0.26;86.80;99944.00;5091097;28;20606;-59
2022/01/14 07:46:50;;;;;;;14.63;6.53;;;;;;;0.28;86.52;99930.53;5091032;28;20861;-59
2022/01/14 07:49:17;;;;;;;14.93;6.73;;;;;;;0.33;86.44;99945.56;5091243;28;20455;-60
2022/01/14 07:51:46;;;;;;;16.63;6.57;;;;;;;0.37;86.85;99957.22;5090850;28;20222;-60
2022/01/14 07:54:12;;;;;;;18.03;7.10;;;;;;;0.46;86.64;99962.09;5090823;28;20221;-59
2022/01/14 07:56:45;;;;;;;13.70;6.40;;;;;;;0.54;86.34;99947.72;5091013;28;20241;-60
2022/01/14 07:59:13;;;;;;;16.33;6.30;;;;;;;0.59;86.27;99948.47;5091159;28;20194;-59
2022/01/14 08:01:40;;;;;;;14.87;6.50;;;;;;;0.81;85.89;99935.50;5090572;28;20229;-60
2022/01/14 08:04:07;;;;;;;19.20;7.23;;;;;;;0.82;85.73;99934.66;5090670;28;20229;-60
2022/01/14 08:06:38;;;;;;;17.63;6.87;;;;;;;0.77;85.62;99936.41;5091030;28;20222;-68
2022/01/14 08:09:07;;;;;;;21.17;8.00;;;;;;;0.66;86.96;99934.91;5090710;28;20198;-69
2022/01/14 08:11:34;;;;;;;14.53;5.73;;;;;;;0.77;86.78;99936.41;5090945;28;20214;-68
2022/01/14 08:14:00;;;;;;;14.27;6.30;;;;;;;0.65;86.84;99933.25;5093643;28;20194;-68
2022/01/14 08:16:27;;;;;;;13.07;7.13;;;;;;;0.79;87.49;99924.63;5094853;28;20718;-59
2022/01/14 08:18:54;;;;;;;19.97;8.43;;;;;;;0.86;87.65;99923.66;5094792;28;20205;-67
2022/01/14 08:21:21;;;;;;;13.83;7.20;;;;;;;0.99;87.26;99937.69;5094763;28;20224;-59
2022/01/14 08:23:48;;;;;;;16.93;7.17;;;;;;;1.23;87.26;99938.03;5094744;28;20205;-68
2022/01/14 08:26:16;;;;;;;15.33;7.13;;;;;;;1.25;86.59;99938.81;5095168;28;20217;-60
2022/01/14 08:28:43;;;;;;;15.37;7.00;;;;;;;1.28;86.57;99941.28;5094598;28;20714;-59
2022/01/14 08:31:10;;;;;;;17.77;7.87;;;;;;;1.41;86.97;99945.22;5094839;28;20228;-60
2022/01/14 08:33:37;;;;;;;18.07;8.50;;;;;;;1.49;86.21;99937.50;5094407;28;20228;-68
2022/01/14 08:36:05;;;;;;;16.17;7.53;;;;;;;1.78;86.01;99944.44;5094491;28;20241;-67
2022/01/14 08:38:32;;;;;;;14.97;7.20;;;;;;;1.90;84.44;99944.13;5094616;28;20625;-67
2022/01/14 08:40:58;;;;;;;13.70;6.30;;;;;;;2.01;84.10;99947.25;5094417;28;20233;-59
2022/01/14 08:43:27;;;;;;;14.13;7.33;;;;;;;2.09;84.05;99949.56;5094269;28;20205;-68
2022/01/14 08:45:53;;;;;;;21.83;8.73;;;;;;;2.07;84.82;99945.44;5093964;28;20232;-67
2022/01/14 08:48:20;;;;;;;12.80;6.30;;;;;;;2.49;83.82;99939.31;5094293;28;20198;-68
2022/01/14 08:50:47;;;;;;;16.00;6.77;;;;;;;2.58;82.98;99942.50;5094769;28;20591;-68
2022/01/14 08:53:14;;;;;;;15.50;8.20;;;;;;;2.28;83.15;99934.81;5094249;28;20198;-68
2022/01/14 08:55:42;;;;;;;18.93;7.57;;;;;;;2.47;84.02;99925.94;5094048;28;20310;-68
2022/01/14 08:58:09;;;;;;;15.53;7.10;;;;;;;2.43;82.97;99919.28;5094070;28;20747;-68
2022/01/14 09:00:38;;;;;;;17.07;7.43;;;;;;;2.55;83.41;99903.00;5093826;28;20273;-59
2022/01/14 09:03:05;;;;;;;12.70;6.37;;;;;;;2.81;82.63;99909.06;5093623;28;21018;-60
2022/01/14 09:05:33;;;;;;;29.93;13.07;;;;;;;2.95;81.54;99892.66;5094084;28;20233;-59
2022/01/14 09:08:01;;;;;;;20.40;8.73;;;;;;;2.68;82.73;99894.25;5093706;28;20198;-66
2022/01/14 09:10:29;;;;;;;17.97;9.20;;;;;;;2.84;82.82;99883.72;5094139;28;20230;-66
2022/01/14 09:12:56;;;;;;;15.77;7.13;;;;;;;3.11;81.23;99879.59;5093588;28;20208;-67
2022/01/14 09:15:22;;;;;;;13.03;6.43;;;;;;;3.36;80.72;99874.63;5093833;28;20197;-67
2022/01/14 09:17:51;;;;;;;14.90;6.27;;;;;;;3.17;80.98;99864.25;5093826;28;20233;-59
2022/01/14 09:20:18;;;;;;;15.13;6.17;;;;;;;3.22;80.65;99854.84;5093769;28;20198;-58
2022/01/14 09:22:49;;;;;;;14.10;6.73;;;;;;;3.03;81.48;99863.84;5093726;28;20193;-59
2022/01/14 09:25:17;;;;;;;15.03;7.90;;;;;;;2.81;82.37;99844.22;5093902;28;20588;-59
2022/01/14 09:27:44;;;;;;;14.60;7.33;;;;;;;3.11;81.72;99841.69;5093854;28;20194;-59
2022/01/14 09:30:12;;;;;;;16.57;7.40;;;;;;;3.29;81.68;99831.03;5093524;28;20244;-59
2022/01/14 09:32:39;;;;;;;14.60;6.67;;;;;;;3.59;79.93;99819.13;5093280;28;20705;-59
2022/01/14 09:35:11;;;;;;;11.23;5.27;;;;;;;3.95;78.80;99807.88;5093388;28;20197;-59
2022/01/14 09:37:39;;;;;;;16.53;8.00;;;;;;;3.75;78.82;99808.53;5093412;28;20229;-66
2022/01/14 09:40:07;;;;;;;14.80;6.67;;;;;;;3.99;78.30;99802.66;5093229;28;20198;-67
2022/01/14 09:42:34;;;;;;;13.07;6.97;;;;;;;3.74;79.54;99799.28;5093653;28;20210;-58
2022/01/14 09:45:01;;;;;;;17.83;7.27;;;;;;;3.55;78.97;99801.56;5093063;28;20194;-58
2022/01/14 09:47:28;;;;;;;13.07;6.60;;;;;;;3.74;79.47;99787.47;5092981;28;20233;-59
2022/01/14 09:49:55;;;;;;;16.00;6.60;;;;;;;3.97;78.69;99796.00;5092899;28;20202;-59
2022/01/14 09:52:23;;;;;;;15.67;7.13;;;;;;;3.88;78.77;99783.66;5092962;28;20658;-58
2022/01/14 09:54:51;;;;;;;16.73;8.00;;;;;;;4.04;78.42;99789.84;5093114;28;20581;-67
2022/01/14 09:57:19;;;;;;;16.63;7.60;;;;;;;4.22;78.34;99789.22;5093028;28;20295;-58
2022/01/14 09:59:46;;;;;;;17.07;7.97;;;;;;;4.31;78.99;99780.50;5093006;28;20202;-67
2022/01/14 10:02:30;;;;;;;14.20;6.40;;;;;;;4.22;78.11;99768.97;5093028;28;20218;-67
2022/01/14 10:04:56;;;;;;;14.17;7.33;;;;;;;4.62;78.02;99770.06;5092976;28;20579;-59
2022/01/14 10:07:25;;;;;;;14.67;7.10;;;;;;;4.59;77.28;99760.03;5092768;28;20218;-67
2022/01/14 10:09:56;;;;;;;14.50;6.87;;;;;;;4.94;76.56;99763.78;5092701;28;20205;-67
2022/01/14 10:12:24;;;;;;;18.90;8.37;;;;;;;5.01;76.88;99749.19;5092882;28;20300;-59
2022/01/14 10:14:56;;;;;;;12.93;7.13;;;;;;;5.27;75.75;99747.34;5092605;28;20202;-67
2022/01/14 10:17:23;;;;;;;13.97;6.93;;;;;;;5.37;74.47;99751.16;5092395;28;20633;-68
2022/01/14 10:19:50;;;;;;;15.83;7.37;;;;;;;5.15;75.74;99730.91;5092676;28;20585;-67
2022/01/14 10:22:26;;;;;;;16.87;7.97;;;;;;;5.54;75.38;99730.19;5092749;28;20606;-68
2022/01/14 10:24:58;;;;;;;14.80;7.33;;;;;;;5.43;75.38;99710.31;5092645;28;20678;-59
2022/01/14 10:27:34;;;;;;;16.07;7.60;;;;;;;5.31;76.12;99720.97;5092402;28;20214;-67
2022/01/14 10:30:11;;;;;;;15.47;7.67;;;;;;;5.24;75.62;99724.66;5092406;28;20562;-67
2022/01/14 10:32:40;;;;;;;13.37;6.70;;;;;;;5.73;75.18;99709.94;5092294;28;20194;-59
2022/01/14 10:35:08;;;;;;;11.37;5.80;;;;;;;6.17;73.23;99702.13;5092135;28;20711;-59
2022/01/14 10:37:37;;;;;;;14.47;7.33;;;;;;;6.41;72.53;99695.97;5092494;28;20233;-66
2022/01/14 10:40:07;;;;;;;15.70;6.67;;;;;;;6.79;69.91;99696.75;5091985;28;20202;-59
2022/01/14 10:42:35;;;;;;;13.90;6.77;;;;;;;6.65;70.62;99683.03;5092361;28;20626;-59
2022/01/14 10:45:19;;;;;;;12.50;6.50;;;;;;;6.37;71.31;99668.25;5092127;28;20654;-59
2022/01/14 10:47:58;;;;;;;13.80;7.03;;;;;;;6.40;71.93;99676.56;5092272;28;20204;-59
2022/01/14 10:50:43;;;;;;;12.93;6.60;;;;;;;5.77;74.11;99658.19;5092043;28;20198;-59
2022/01/14 10:53:14;;;;;;;11.97;6.30;;;;;;;5.84;74.74;99659.56;5091985;28;20214;-68
2022/01/14 10:55:44;;;;;;;13.33;7.37;;;;;;;5.93;74.05;99651.56;5091812;28;20218;-59
2022/01/14 10:58:16;;;;;;;10.50;5.73;;;;;;;6.01;73.26;99636.00;5091601;28;20237;-68
2022/01/14 11:00:46;;;;;;;13.60;7.20;;;;;;;6.07;74.84;99639.09;5092095;28;20251;-58
2022/01/14 11:03:13;;;;;;;11.93;6.57;;;;;;;6.28;72.78;99639.00;5091925;28;20216;-67
2022/01/14 11:05:41;;;;;;;13.80;7.13;;;;;;;6.26;73.11;99636.56;5091597;28;20218;-67
2022/01/14 11:08:08;;;;;;;15.73;7.23;;;;;;;6.46;73.11;99628.03;5091650;28;20253;-59
2022/01/14 11:10:39;;;;;;;13.17;6.90;;;;;;;6.52;72.68;99621.84;5091662;28;20261;-59
2022/01/14 11:13:08;;;;;;;13.40;6.20;;;;;;;6.10;72.32;99608.47;5091592;28;20202;-58
2022/01/14 11:15:35;;;;;;;16.03;6.93;;;;;;;5.92;74.01;99611.81;5091384;28;20217;-67
2022/01/14 11:18:05;;;;;;;10.73;5.90;;;;;;;6.07;73.10;99590.03;5091315;28;20230;-67
2022/01/14 11:20:37;;;;;;;11.63;5.57;;;;;;;5.85;73.33;99598.59;5091475;28;20254;-58
2022/01/14 11:23:15;;;;;;;12.33;6.50;;;;;;;5.63;74.17;99585.22;5091632;28;20186;-67
2022/01/14 11:25:51;;;;;;;12.47;6.07;;;;;;;6.04;73.71;99591.00;5091691;28;20248;-67
2022/01/14 11:28:25;;;;;;;12.60;6.13;;;;;;;5.84;74.36;99576.63;5091383;28;20208;-59
